»·PEaware :: FGP457 KSLC-KLAX

FGP457 :: KSLC-KLAX

FLIGHT INFORMATION

Flight Status: Arrived
Operator: Unknown
More flights by this operator :: More flights under this callsign
Pilot: Alan S. (10569)
Aircraft: TUPOLEV TU-154
(T154)
More flights by this aircraft type
Origin: KSLC Salt Lake City Intl
United States
Destination: KLAX Los Angeles Intl
United States
More flights between these airports :: More routes between these airports
Route: EDETH4 BERYL LAKRR HAKMN ANJLL1
File this flight plan on PilotEdge
Remarks: FLYING CENTER
Altitude:
(Current/Filed)
36,000ft
Speed:
(Current/Filed)
460kts
Departed: 21-May-17 07:15 PM
Arrived: 21-May-17 08:37 PM
Distance/Time
Traveled:
513nm/1:22
Distance/Time
To Go:
Arrived

Flight Plot

Page will automatically refresh every two minutes.

Flight plan parsing failed; only flown route is shown


Map Options




Map Legend


Flown Route
Filed Route
Departure Airport
Arrival Airport
Navaid (VOR, NDB)
Fix

Horizontal Profiles

Position Reports

Time Latitude Longitude Heading Altitude Ground
Speed
21-May-17 18:43 40.793612 -111.980247 354 4239ft 0kts
21-May-17 18:44 40.793612 -111.980247 354 4239ft 0kts
21-May-17 18:45 40.793612 -111.980247 354 4239ft 0kts
21-May-17 18:46 40.793612 -111.980247 354 4239ft 0kts
21-May-17 18:47 40.793612 -111.980247 354 4239ft 0kts
21-May-17 18:48 40.793612 -111.980247 354 4239ft 0kts
21-May-17 18:49 40.793612 -111.980247 354 4239ft 0kts
21-May-17 18:50 40.793612 -111.980247 354 4239ft 0kts
21-May-17 18:51 40.793612 -111.980247 354 4239ft 0kts
21-May-17 18:52 40.793612 -111.980247 354 4239ft 0kts
21-May-17 18:53 40.793612 -111.980247 354 4239ft 0kts
21-May-17 18:54 40.793612 -111.980247 354 4239ft 0kts
21-May-17 18:55 40.793612 -111.980247 354 4239ft 0kts
21-May-17 18:56 40.793612 -111.980247 354 4239ft 0kts
21-May-17 18:57 40.793612 -111.980247 354 4239ft 0kts
21-May-17 18:58 40.793612 -111.980247 354 4239ft 0kts
21-May-17 18:59 40.793612 -111.980247 354 4239ft 0kts
21-May-17 19:00 40.793612 -111.980247 354 4239ft 0kts
21-May-17 19:01 40.793612 -111.980247 354 4239ft 0kts
21-May-17 19:02 40.793612 -111.980247 354 4239ft 0kts
21-May-17 19:03 40.793612 -111.980247 354 4239ft 0kts
21-May-17 19:04 40.793612 -111.980247 354 4239ft 0kts
21-May-17 19:05 40.793612 -111.980247 354 4239ft 0kts
21-May-17 19:06 40.793612 -111.980247 354 4239ft 0kts
21-May-17 19:07 40.793612 -111.980247 354 4239ft 0kts
21-May-17 19:08 40.793612 -111.980247 354 4239ft 0kts
21-May-17 19:09 40.794281 -111.979758 72 4239ft 7kts
21-May-17 19:10 40.792094 -111.977776 110 4239ft 12kts
21-May-17 19:11 40.788610 -111.976906 174 4239ft 14kts
21-May-17 19:12 40.784042 -111.976396 174 4239ft 18kts
21-May-17 19:13 40.778680 -111.975323 164 4239ft 20kts
21-May-17 19:14 40.775241 -111.974873 174 4239ft 0kts
21-May-17 19:15 40.775239 -111.974873 174 4239ft 0kts
21-May-17 19:16 40.774914 -111.973438 46 4239ft 11kts
21-May-17 19:17 40.792683 -111.975269 351 4243ft 172kts
21-May-17 19:18 40.857115 -111.990786 323 5800ft 289kts
21-May-17 19:19 40.862130 -112.086602 246 9567ft 314kts
21-May-17 19:20 40.825138 -112.192851 245 13659ft 315kts
21-May-17 19:21 40.765096 -112.270570 205 17018ft 325kts
21-May-17 19:22 40.675231 -112.295652 187 19724ft 347kts
21-May-17 19:23 40.575291 -112.310030 187 22228ft 377kts
21-May-17 19:24 40.469603 -112.331350 189 24802ft 397kts
21-May-17 19:25 40.357360 -112.354936 189 26928ft 424kts
21-May-17 19:26 40.251389 -112.417858 211 29409ft 429kts
21-May-17 19:27 40.145891 -112.493319 210 31665ft 438kts
21-May-17 19:28 40.043497 -112.575989 205 33990ft 437kts
21-May-17 19:29 39.933633 -112.642906 210 35905ft 438kts
21-May-17 19:30 39.849637 -112.701345 210 36224ft 465kts
21-May-17 19:31 39.733174 -112.782411 210 36476ft 495kts
21-May-17 19:32 39.603172 -112.846441 193 36581ft 516kts
21-May-17 19:33 39.462185 -112.891209 194 36489ft 531kts
21-May-17 19:34 39.318186 -112.938429 194 36352ft 542kts
21-May-17 19:35 39.171676 -112.986251 193 36376ft 548kts
21-May-17 19:36 39.023172 -113.033571 193 36405ft 555kts
21-May-17 19:37 38.878951 -113.079418 194 36402ft 537kts
21-May-17 19:38 38.741027 -113.122993 194 35678ft 520kts
21-May-17 19:39 38.602378 -113.166708 195 35792ft 511kts
21-May-17 19:40 38.465342 -113.209785 195 35976ft 508kts
21-May-17 19:41 38.329170 -113.252406 195 36205ft 505kts
21-May-17 19:42 38.193144 -113.294826 194 36474ft 503kts
21-May-17 19:43 38.057435 -113.336972 194 36509ft 506kts
21-May-17 19:44 37.920806 -113.379252 194 36414ft 508kts
21-May-17 19:45 37.796371 -113.437266 204 36071ft 512kts
21-May-17 19:46 37.664838 -113.504765 203 35739ft 513kts
21-May-17 19:47 37.533457 -113.571093 203 35885ft 507kts
21-May-17 19:48 37.402985 -113.636677 203 36193ft 503kts
21-May-17 19:49 37.290937 -113.693152 202 36221ft 506kts
21-May-17 19:50 37.160661 -113.758305 202 36283ft 506kts
21-May-17 19:51 37.030428 -113.823087 204 36401ft 499kts
21-May-17 19:52 36.904622 -113.885403 205 36321ft 479kts
21-May-17 19:53 36.792505 -113.940599 205 35864ft 475kts
21-May-17 19:54 36.670859 -114.000455 205 35966ft 468kts
21-May-17 19:55 36.550447 -114.059547 205 36156ft 465kts
21-May-17 19:56 36.430484 -114.118218 205 36346ft 463kts
21-May-17 19:57 36.310685 -114.176622 205 36217ft 468kts
21-May-17 19:58 36.189700 -114.235385 205 36090ft 469kts
21-May-17 19:59 36.073298 -114.302134 226 36166ft 453kts
21-May-17 20:00 35.989824 -114.418345 231 36091ft 454kts
21-May-17 20:01 35.905933 -114.534804 231 36038ft 456kts
21-May-17 20:02 35.826489 -114.643743 231 35998ft 456kts
21-May-17 20:03 35.745339 -114.755519 230 35999ft 456kts
21-May-17 20:04 35.664170 -114.866699 230 35994ft 456kts
21-May-17 20:05 35.579427 -114.982344 231 35996ft 457kts
21-May-17 20:06 35.493643 -115.098839 230 36002ft 466kts
21-May-17 20:07 35.413621 -115.203003 228 36012ft 477kts
21-May-17 20:08 35.322093 -115.322123 229 35993ft 484kts
21-May-17 20:09 35.229434 -115.442380 228 36012ft 486kts
21-May-17 20:10 35.136907 -115.562039 228 35986ft 488kts
21-May-17 20:11 35.045872 -115.679250 228 36031ft 487kts
21-May-17 20:12 34.956647 -115.793861 229 36053ft 475kts
21-May-17 20:13 34.872955 -115.900560 228 36056ft 458kts
21-May-17 20:14 34.790198 -116.005561 228 36058ft 450kts
21-May-17 20:15 34.704875 -116.113826 228 35708ft 438kts
21-May-17 20:16 34.621898 -116.218828 228 34562ft 429kts
21-May-17 20:17 34.539706 -116.322517 229 33439ft 427kts
21-May-17 20:18 34.457427 -116.425996 229 32094ft 428kts
21-May-17 20:19 34.388957 -116.540512 247 30657ft 423kts
21-May-17 20:20 34.338691 -116.666602 246 28732ft 429kts
21-May-17 20:21 34.298722 -116.766025 246 26994ft 438kts
21-May-17 20:22 34.250190 -116.886727 246 25091ft 435kts
21-May-17 20:23 34.204264 -117.003442 252 23309ft 414kts
21-May-17 20:24 34.170412 -117.133456 253 21683ft 403kts
21-May-17 20:25 34.136607 -117.257327 252 19719ft 371kts
21-May-17 20:26 34.106214 -117.367491 252 17663ft 374kts
21-May-17 20:27 34.077851 -117.480145 254 15304ft 337kts
21-May-17 20:28 34.060679 -117.585507 261 13077ft 311kts
21-May-17 20:29 34.049854 -117.665036 261 11094ft 302kts
21-May-17 20:30 34.024450 -117.771064 241 9209ft 294kts
21-May-17 20:31 33.990485 -117.842022 248 8150ft 292kts
21-May-17 20:32 33.982512 -117.947963 264 7511ft 267kts
21-May-17 20:33 33.971218 -118.036533 259 5262ft 292kts
21-May-17 20:34 33.965934 -118.112700 261 4872ft 269kts
21-May-17 20:35 33.954476 -118.208166 261 3192ft 235kts
21-May-17 20:36 33.948643 -118.271391 263 2199ft 207kts
21-May-17 20:37 33.942431 -118.331083 262 924ft 155kts
21-May-17 20:38 33.937647 -118.379621 262 215ft 145kts
21-May-17 20:39 33.934254 -118.412885 260 116ft 33kts
21-May-17 20:40 33.934800 -118.419030 352 116ft 2kts
21-May-17 20:41 33.937690 -118.418629 79 116ft 15kts
21-May-17 20:42 33.938601 -118.417934 264 115ft 4kts

Navigation Log

Ident Type
Flight plan parsing failed, navigation log unavailable